createdAt,value
2023-05-20T00:01:22.871Z,16.56
2023-05-20T00:03:51.060Z,16.48
2023-05-20T00:06:19.027Z,16.45
2023-05-20T00:08:48.288Z,16.34
2023-05-20T00:11:16.151Z,16.38
2023-05-20T00:13:44.099Z,16.23
2023-05-20T00:16:11.992Z,16.26
2023-05-20T00:18:39.874Z,16.22
2023-05-20T00:21:07.799Z,16.18
2023-05-20T00:23:35.749Z,16.04
2023-05-20T00:26:05.348Z,16.07
2023-05-20T00:28:33.145Z,16.05
2023-05-20T00:31:01.007Z,16.07
2023-05-20T00:33:28.912Z,16.03
2023-05-20T00:35:56.784Z,15.99
2023-05-20T00:38:24.728Z,15.98
2023-05-20T00:40:52.550Z,15.94
2023-05-20T00:43:22.740Z,15.91
2023-05-20T00:45:51.090Z,15.72
2023-05-20T00:48:19.829Z,15.85
2023-05-20T00:50:48.533Z,15.81
2023-05-20T00:53:18.296Z,15.78
2023-05-20T00:55:46.663Z,15.72
2023-05-20T00:58:14.585Z,15.73
2023-05-20T01:00:44.295Z,15.71
2023-05-20T01:03:12.688Z,15.70
2023-05-20T01:05:42.257Z,15.63
2023-05-20T01:08:10.756Z,15.63
2023-05-20T01:10:43.127Z,15.63
2023-05-20T01:13:15.732Z,15.66
2023-05-20T01:15:48.474Z,15.54
2023-05-20T01:18:18.584Z,15.69
2023-05-20T01:20:51.037Z,15.50
2023-05-20T01:23:20.354Z,15.55
2023-05-20T01:25:48.355Z,15.66
2023-05-20T01:28:18.024Z,15.67
2023-05-20T01:30:53.561Z,15.62
2023-05-20T01:33:24.839Z,15.50
2023-05-20T01:35:52.841Z,15.61
2023-05-20T01:38:24.630Z,15.44
2023-05-20T01:40:53.319Z,15.53
2023-05-20T01:43:22.446Z,15.42
2023-05-20T01:45:50.364Z,15.47
2023-05-20T01:48:18.272Z,15.48
2023-05-20T01:50:46.232Z,15.48
2023-05-20T01:53:14.173Z,15.45
2023-05-20T01:55:44.379Z,15.45
2023-05-20T01:58:12.459Z,15.37
2023-05-20T02:00:40.482Z,15.39
2023-05-20T02:03:08.572Z,15.36
2023-05-20T02:05:37.469Z,15.35
2023-05-20T02:08:06.904Z,15.32
2023-05-20T02:10:34.745Z,15.28
2023-05-20T02:13:03.889Z,15.31
2023-05-20T02:15:32.514Z,15.30
2023-05-20T02:18:00.534Z,15.29
2023-05-20T02:20:28.796Z,15.27
2023-05-20T02:22:56.598Z,15.17
2023-05-20T02:25:24.515Z,15.30
2023-05-20T02:27:52.304Z,15.29
2023-05-20T02:30:22.890Z,15.18
2023-05-20T02:32:51.217Z,15.27
2023-05-20T02:35:19.262Z,15.27
2023-05-20T02:37:48.415Z,15.22
2023-05-20T02:40:17.278Z,15.10
2023-05-20T02:42:45.149Z,15.26
2023-05-20T02:45:13.249Z,15.15
2023-05-20T02:47:42.446Z,15.22
2023-05-20T02:50:11.373Z,15.21
2023-05-20T02:52:39.979Z,15.18
2023-05-20T02:55:08.729Z,15.09
2023-05-20T02:57:38.217Z,15.12
2023-05-20T03:00:11.488Z,15.07
2023-05-20T03:02:39.450Z,15.03
2023-05-20T03:05:10.882Z,15.05
2023-05-20T03:07:38.944Z,14.92
2023-05-20T03:10:09.383Z,14.84
2023-05-20T03:12:39.932Z,14.97
2023-05-20T03:15:11.955Z,14.94
2023-05-20T03:17:49.084Z,14.86
2023-05-20T03:20:18.702Z,14.70
2023-05-20T03:22:46.572Z,14.75
2023-05-20T03:25:14.864Z,14.86
2023-05-20T03:27:43.008Z,14.72
2023-05-20T03:30:12.564Z,14.81
2023-05-20T03:32:40.604Z,14.82
2023-05-20T03:35:09.740Z,14.82
2023-05-20T03:37:39.803Z,14.79
2023-05-20T03:40:10.223Z,14.81
2023-05-20T03:42:38.923Z,14.80
2023-05-20T03:45:08.605Z,14.82
2023-05-20T03:47:43.813Z,14.85
2023-05-20T03:50:12.038Z,14.85
2023-05-20T03:52:41.890Z,14.89
2023-05-20T03:55:10.886Z,14.89
2023-05-20T03:57:38.925Z,14.91
2023-05-20T04:00:11.928Z,14.93
2023-05-20T04:02:44.146Z,14.95
2023-05-20T04:05:14.865Z,14.93
2023-05-20T04:07:44.580Z,14.93
2023-05-20T04:10:13.917Z,14.91
2023-05-20T04:12:42.555Z,14.94
2023-05-20T04:15:11.705Z,14.97
2023-05-20T04:17:50.531Z,14.98
2023-05-20T04:20:19.239Z,15.00
2023-05-20T04:22:48.547Z,15.05
2023-05-20T04:25:16.910Z,15.02
2023-05-20T04:27:44.891Z,15.02
2023-05-20T04:30:13.921Z,15.02
2023-05-20T04:32:42.709Z,15.07
2023-05-20T04:35:13.589Z,15.00
2023-05-20T04:37:48.019Z,15.10
2023-05-20T04:40:19.149Z,15.01
2023-05-20T04:42:47.640Z,15.15
2023-05-20T04:45:16.693Z,15.14
2023-05-20T04:47:46.062Z,15.13
2023-05-20T04:50:14.832Z,15.16
2023-05-20T04:52:45.407Z,15.19
2023-05-20T04:55:15.455Z,15.18
2023-05-20T04:57:45.519Z,15.19
2023-05-20T05:00:14.234Z,15.23
2023-05-20T05:02:42.151Z,15.26
2023-05-20T05:05:10.510Z,15.14
2023-05-20T05:07:39.412Z,15.33
2023-05-20T05:10:07.965Z,15.38
2023-05-20T05:12:35.850Z,15.38
2023-05-20T05:15:07.492Z,15.40
2023-05-20T05:17:35.342Z,15.42
2023-05-20T05:20:03.471Z,15.51
2023-05-20T05:22:36.804Z,15.57
2023-05-20T05:25:05.020Z,15.58
2023-05-20T05:27:33.009Z,15.66
2023-05-20T05:30:02.069Z,15.68
2023-05-20T05:32:32.012Z,15.74
2023-05-20T05:35:00.191Z,15.71
2023-05-20T05:37:29.449Z,15.78
2023-05-20T05:39:57.553Z,15.79
2023-05-20T05:42:25.406Z,15.78
2023-05-20T05:44:53.487Z,15.80
2023-05-20T05:47:22.740Z,15.84
2023-05-20T05:49:52.909Z,15.89
2023-05-20T05:52:20.782Z,15.92
2023-05-20T05:54:48.956Z,15.96
2023-05-20T05:57:16.858Z,15.98
2023-05-20T05:59:44.783Z,16.03
2023-05-20T06:02:14.552Z,16.05
2023-05-20T06:04:42.736Z,16.12
2023-05-20T06:07:11.997Z,16.17
2023-05-20T06:09:40.339Z,16.26
2023-05-20T06:12:09.004Z,16.30
2023-05-20T06:14:36.924Z,16.34
2023-05-20T06:17:06.279Z,16.35
2023-05-20T06:19:39.956Z,16.31
2023-05-20T06:22:07.974Z,16.47
2023-05-20T06:24:37.573Z,16.52
2023-05-20T06:27:05.875Z,16.55
2023-05-20T06:29:33.784Z,16.57
2023-05-20T06:32:04.694Z,16.63
2023-05-20T06:34:32.795Z,16.65
2023-05-20T06:37:00.972Z,16.69
2023-05-20T06:39:29.475Z,16.71
2023-05-20T06:41:58.834Z,16.74
2023-05-20T06:44:32.529Z,16.73
2023-05-20T06:47:18.839Z,16.81
2023-05-20T06:49:48.967Z,16.84
2023-05-20T06:52:20.268Z,16.85
2023-05-20T06:54:48.307Z,16.91
2023-05-20T06:57:18.124Z,16.81
2023-05-20T06:59:46.437Z,16.92
2023-05-20T07:02:15.616Z,16.96
2023-05-20T07:04:44.095Z,17.00
2023-05-20T07:07:12.609Z,17.03
2023-05-20T07:09:40.585Z,17.08
2023-05-20T07:12:09.322Z,17.11
2023-05-20T07:14:41.647Z,17.15
2023-05-20T07:17:12.355Z,17.21
2023-05-20T07:19:43.373Z,17.27
2023-05-20T07:22:11.715Z,17.31
2023-05-20T07:24:55.245Z,17.34
2023-05-20T07:27:23.409Z,17.36
2023-05-20T07:29:52.573Z,17.39
2023-05-20T07:32:21.724Z,17.45
2023-05-20T07:34:49.546Z,17.51
2023-05-20T07:37:17.340Z,17.53
2023-05-20T07:39:46.199Z,17.57
2023-05-20T07:42:14.059Z,17.63
2023-05-20T07:44:45.445Z,17.67
2023-05-20T07:47:15.190Z,17.71
2023-05-20T07:49:44.426Z,17.78
2023-05-20T07:52:12.309Z,17.82
2023-05-20T07:54:40.314Z,17.87
2023-05-20T07:57:08.930Z,17.92
2023-05-20T07:59:36.770Z,17.94
2023-05-20T08:02:04.696Z,17.94
2023-05-20T08:04:35.153Z,17.96
2023-05-20T08:07:03.170Z,18.02
2023-05-20T08:09:41.498Z,18.02
2023-05-20T08:12:09.418Z,18.07
2023-05-20T08:14:38.966Z,18.06
2023-05-20T08:17:07.036Z,18.16
2023-05-20T08:19:36.435Z,18.17
2023-05-20T08:22:04.360Z,18.19
2023-05-20T08:24:33.299Z,18.18
2023-05-20T08:27:01.205Z,18.07
2023-05-20T08:29:28.962Z,18.09
2023-05-20T08:31:58.753Z,18.17
2023-05-20T08:34:28.296Z,18.24
2023-05-20T08:36:58.217Z,18.20
2023-05-20T08:39:27.123Z,18.29
2023-05-20T08:41:55.309Z,18.33
2023-05-20T08:44:25.558Z,18.33
2023-05-20T08:46:54.356Z,18.38
2023-05-20T08:49:22.582Z,18.41
2023-05-20T08:51:50.648Z,18.34
2023-05-20T08:54:20.933Z,18.43
2023-05-20T08:56:49.114Z,18.46
2023-05-20T08:59:19.125Z,18.54
2023-05-20T09:01:46.956Z,18.54
2023-05-20T09:04:14.833Z,18.59
2023-05-20T09:06:46.041Z,18.65
2023-05-20T09:09:14.006Z,18.71
2023-05-20T09:11:43.504Z,18.71
2023-05-20T09:14:11.692Z,18.76
2023-05-20T09:16:41.505Z,18.76
2023-05-20T09:19:09.879Z,18.82
2023-05-20T09:21:39.028Z,18.88
2023-05-20T09:24:07.739Z,18.87
2023-05-20T09:26:36.085Z,18.96
2023-05-20T09:29:05.305Z,19.04
2023-05-20T09:31:34.144Z,19.06
2023-05-20T09:34:02.881Z,19.08
2023-05-20T09:36:31.901Z,19.06
2023-05-20T09:39:05.172Z,19.20
2023-05-20T09:41:37.086Z,19.25
2023-05-20T09:44:06.804Z,19.26
2023-05-20T09:46:35.491Z,19.36
2023-05-20T09:49:06.764Z,19.42
2023-05-20T09:51:35.368Z,19.45
2023-05-20T09:54:05.063Z,19.53
2023-05-20T09:56:34.432Z,19.50
2023-05-20T09:59:03.665Z,19.51
2023-05-20T10:01:33.004Z,19.53
2023-05-20T10:04:01.829Z,19.60
2023-05-20T10:06:49.668Z,19.67
2023-05-20T10:09:33.586Z,19.74
2023-05-20T10:12:11.336Z,19.77
2023-05-20T10:14:48.664Z,19.79
2023-05-20T10:17:22.763Z,19.83
2023-05-20T10:19:51.336Z,19.87
2023-05-20T10:22:28.933Z,19.85
2023-05-20T10:25:00.293Z,19.82
2023-05-20T10:27:33.868Z,19.72
2023-05-20T10:30:01.767Z,19.71
2023-05-20T10:32:33.196Z,19.75
2023-05-20T10:35:06.244Z,19.76
2023-05-20T10:37:35.444Z,19.75
2023-05-20T10:40:12.200Z,19.73
2023-05-20T10:42:44.972Z,19.75
2023-05-20T10:45:13.384Z,19.70
2023-05-20T10:47:55.888Z,19.72
2023-05-20T10:50:35.129Z,19.56
2023-05-20T10:53:09.385Z,19.61
2023-05-20T10:55:40.059Z,19.52
2023-05-20T10:58:08.312Z,19.63
2023-05-20T11:00:36.979Z,19.57
2023-05-20T11:03:07.956Z,19.72
2023-05-20T11:05:36.408Z,19.77
2023-05-20T11:08:13.653Z,19.74
2023-05-20T11:10:52.429Z,19.84
2023-05-20T11:13:20.276Z,19.91
2023-05-20T11:15:50.957Z,19.96
2023-05-20T11:18:20.511Z,19.95
2023-05-20T11:20:48.529Z,20.03
2023-05-20T11:23:16.933Z,20.18
2023-05-20T11:25:44.742Z,20.21
2023-05-20T11:28:14.820Z,20.26
2023-05-20T11:30:43.699Z,20.29
2023-05-20T11:33:15.939Z,20.35
2023-05-20T11:35:48.790Z,20.44
2023-05-20T11:38:29.674Z,20.46
2023-05-20T11:40:57.898Z,20.63
2023-05-20T11:43:26.182Z,20.77
2023-05-20T11:45:55.811Z,20.74
2023-05-20T11:48:24.679Z,20.90
2023-05-20T11:50:55.156Z,21.04
2023-05-20T11:53:25.277Z,21.02
2023-05-20T11:55:55.013Z,21.08
2023-05-20T11:58:23.966Z,21.09
2023-05-20T12:00:57.107Z,21.08
2023-05-20T12:03:30.265Z,21.02
2023-05-20T12:06:02.377Z,21.18
2023-05-20T12:08:30.685Z,21.14
2023-05-20T12:10:58.496Z,21.04
2023-05-20T12:13:26.521Z,21.04
2023-05-20T12:15:54.326Z,20.93
2023-05-20T12:18:23.141Z,20.97
2023-05-20T12:20:51.148Z,21.08
2023-05-20T12:23:21.373Z,21.12
2023-05-20T12:25:50.070Z,21.18
2023-05-20T12:28:18.230Z,21.18
2023-05-20T12:30:46.208Z,21.16
2023-05-20T12:33:14.071Z,21.00
2023-05-20T12:35:44.804Z,21.20
2023-05-20T12:38:12.709Z,21.34
2023-05-20T12:40:41.867Z,21.47
2023-05-20T12:43:10.054Z,21.38
2023-05-20T12:45:37.837Z,21.50
2023-05-20T12:48:07.199Z,21.48
2023-05-20T12:50:35.467Z,21.46
2023-05-20T12:53:03.531Z,21.44
2023-05-20T12:55:31.316Z,21.51
2023-05-20T12:58:00.532Z,21.55
2023-05-20T13:00:29.089Z,21.58
2023-05-20T13:02:57.025Z,21.69
2023-05-20T13:05:24.985Z,21.72
2023-05-20T13:07:52.945Z,21.77
2023-05-20T13:10:21.023Z,21.63
2023-05-20T13:12:48.899Z,21.57
2023-05-20T13:15:20.552Z,21.61
2023-05-20T13:17:50.771Z,21.92
2023-05-20T13:20:19.895Z,21.94
2023-05-20T13:22:47.958Z,21.97
2023-05-20T13:25:15.932Z,21.92
2023-05-20T13:27:43.815Z,22.26
2023-05-20T13:30:12.389Z,22.27
2023-05-20T13:32:41.806Z,22.78
2023-05-20T13:35:10.240Z,24.08
2023-05-20T13:37:38.220Z,24.85
2023-05-20T13:40:07.378Z,25.16
2023-05-20T13:42:35.303Z,25.12
2023-05-20T13:45:03.186Z,24.57
2023-05-20T13:47:31.340Z,25.19
2023-05-20T13:50:02.597Z,24.75
2023-05-20T13:52:31.193Z,24.23
2023-05-20T13:54:59.017Z,23.75
2023-05-20T13:57:26.976Z,23.40
2023-05-20T13:59:54.755Z,23.14
2023-05-20T14:02:22.530Z,22.89
2023-05-20T14:04:50.353Z,22.71
2023-05-20T14:07:19.663Z,22.51
2023-05-20T14:09:47.552Z,22.23
2023-05-20T14:12:15.359Z,22.04
2023-05-20T14:14:43.227Z,21.84
2023-05-20T14:17:11.369Z,21.78
2023-05-20T14:19:39.519Z,21.69
2023-05-20T14:22:07.504Z,21.56
2023-05-20T14:24:36.661Z,21.54
2023-05-20T14:27:04.608Z,21.31
2023-05-20T14:29:32.461Z,21.44
2023-05-20T14:32:01.446Z,21.45
2023-05-20T14:34:29.358Z,21.46
2023-05-20T14:36:57.171Z,21.50
2023-05-20T14:39:24.987Z,21.53
2023-05-20T14:41:54.309Z,21.50
2023-05-20T14:44:24.523Z,21.42
2023-05-20T14:46:52.466Z,21.35
2023-05-20T14:49:20.233Z,21.24
2023-05-20T14:51:48.271Z,21.19
2023-05-20T14:54:16.444Z,21.12
2023-05-20T14:56:44.271Z,21.09
2023-05-20T14:59:13.615Z,21.08
2023-05-20T15:01:41.423Z,21.02
2023-05-20T15:04:09.268Z,20.95
2023-05-20T15:06:37.381Z,20.86
2023-05-20T15:09:06.623Z,20.84
2023-05-20T15:11:34.551Z,20.72
2023-05-20T15:14:02.422Z,20.63
2023-05-20T15:16:31.798Z,20.58
2023-05-20T15:18:59.644Z,20.56
2023-05-20T15:21:27.501Z,20.52
2023-05-20T15:23:55.453Z,20.53
2023-05-20T15:26:23.389Z,20.52
2023-05-20T15:28:51.357Z,20.52
2023-05-20T15:31:19.326Z,20.51
2023-05-20T15:33:48.882Z,20.49
2023-05-20T15:36:16.898Z,20.31
2023-05-20T15:38:45.021Z,20.34
2023-05-20T15:41:14.551Z,20.48
2023-05-20T15:43:42.650Z,20.47
2023-05-20T15:46:10.617Z,20.31
2023-05-20T15:48:39.253Z,20.33
2023-05-20T15:51:08.379Z,20.48
2023-05-20T15:53:37.152Z,20.46
2023-05-20T15:56:07.922Z,20.53
2023-05-20T15:58:35.708Z,20.54
2023-05-20T16:01:03.804Z,20.53
2023-05-20T16:03:32.132Z,20.50
2023-05-20T16:06:00.040Z,20.47
2023-05-20T16:08:30.330Z,20.45
2023-05-20T16:10:58.163Z,20.44
2023-05-20T16:13:26.142Z,20.40
2023-05-20T16:15:57.762Z,20.29
2023-05-20T16:18:25.993Z,20.34
2023-05-20T16:20:53.829Z,20.36
2023-05-20T16:23:21.742Z,20.35
2023-05-20T16:25:51.272Z,20.29
2023-05-20T16:28:19.273Z,20.26
2023-05-20T16:30:47.144Z,20.23
2023-05-20T16:33:14.865Z,20.18
2023-05-20T16:35:42.654Z,20.14
2023-05-20T16:38:11.180Z,20.08
2023-05-20T16:40:39.060Z,20.08
2023-05-20T16:43:08.337Z,19.98
2023-05-20T16:45:36.799Z,20.09
2023-05-20T16:48:05.092Z,20.05
2023-05-20T16:50:33.164Z,19.95
2023-05-20T16:53:01.123Z,19.97
2023-05-20T16:55:28.933Z,19.95
2023-05-20T16:57:56.713Z,19.94
2023-05-20T17:00:25.960Z,19.94
2023-05-20T17:02:53.825Z,19.90
2023-05-20T17:05:21.679Z,19.86
2023-05-20T17:07:49.987Z,19.90
2023-05-20T17:10:17.908Z,19.90
2023-05-20T17:12:48.588Z,19.91
2023-05-20T17:15:16.430Z,19.86
2023-05-20T17:17:45.608Z,19.89
2023-05-20T17:20:14.234Z,19.88
2023-05-20T17:22:42.135Z,19.74
2023-05-20T17:25:10.827Z,19.84
2023-05-20T17:27:38.807Z,19.82
2023-05-20T17:30:07.776Z,19.78
2023-05-20T17:32:35.726Z,19.75
2023-05-20T17:35:05.814Z,19.76
2023-05-20T17:37:33.666Z,19.75
2023-05-20T17:40:01.578Z,19.71
2023-05-20T17:42:29.438Z,19.70
2023-05-20T17:44:57.216Z,19.67
2023-05-20T17:47:25.216Z,19.62
2023-05-20T17:49:53.288Z,19.62
2023-05-20T17:52:22.406Z,19.60
2023-05-20T17:54:50.270Z,19.58
2023-05-20T17:57:18.950Z,19.53
2023-05-20T17:59:47.224Z,19.56
2023-05-20T18:02:15.175Z,19.54
2023-05-20T18:04:42.983Z,19.54
2023-05-20T18:07:10.821Z,19.51
2023-05-20T18:09:40.560Z,19.47
2023-05-20T18:12:09.211Z,19.33
2023-05-20T18:14:37.128Z,19.35
2023-05-20T18:17:05.196Z,19.42
2023-05-20T18:19:33.857Z,19.34
2023-05-20T18:22:02.746Z,19.36
2023-05-20T18:24:31.051Z,19.31
2023-05-20T18:27:00.200Z,19.26
2023-05-20T18:29:28.074Z,19.16
2023-05-20T18:31:55.954Z,19.18
2023-05-20T18:34:24.013Z,19.14
2023-05-20T18:36:51.964Z,19.08
2023-05-20T18:39:21.086Z,19.00
2023-05-20T18:41:49.215Z,18.95
2023-05-20T18:44:19.978Z,18.77
2023-05-20T18:46:47.980Z,18.89
2023-05-20T18:49:15.952Z,18.80
2023-05-20T18:51:43.803Z,18.81
2023-05-20T18:54:11.579Z,18.76
2023-05-20T18:56:40.078Z,18.74
2023-05-20T18:59:07.927Z,18.69
2023-05-20T19:01:37.172Z,18.64
2023-05-20T19:04:05.202Z,18.63
2023-05-20T19:06:35.216Z,18.62
2023-05-20T19:09:03.642Z,18.58
2023-05-20T19:11:34.452Z,18.55
2023-05-20T19:14:04.100Z,18.49
2023-05-20T19:16:32.943Z,18.45
2023-05-20T19:19:02.319Z,18.42
2023-05-20T19:21:30.734Z,18.36
2023-05-20T19:23:58.761Z,18.35
2023-05-20T19:26:26.767Z,18.24
2023-05-20T19:29:00.075Z,18.26
2023-05-20T19:31:28.001Z,18.22
2023-05-20T19:33:55.885Z,18.18
2023-05-20T19:36:25.132Z,18.12
2023-05-20T19:38:53.074Z,18.11
2023-05-20T19:41:21.212Z,18.08
2023-05-20T19:43:49.015Z,18.05
2023-05-20T19:46:17.130Z,18.02
2023-05-20T19:48:44.945Z,17.97
2023-05-20T19:51:12.859Z,17.89
2023-05-20T19:53:42.199Z,17.77
2023-05-20T19:56:09.986Z,17.85
2023-05-20T19:58:37.820Z,17.46
2023-05-20T20:01:06.705Z,17.79
2023-05-20T20:03:35.006Z,17.73
2023-05-20T20:06:04.006Z,17.70
2023-05-20T20:08:32.162Z,17.68
2023-05-20T20:11:01.349Z,17.64
2023-05-20T20:13:30.465Z,17.58
2023-05-20T20:15:58.982Z,17.57
2023-05-20T20:18:27.065Z,17.47
2023-05-20T20:20:56.087Z,17.41
2023-05-20T20:23:23.895Z,17.50
2023-05-20T20:25:51.803Z,17.51
2023-05-20T20:28:21.020Z,17.51
2023-05-20T20:30:48.791Z,17.48
2023-05-20T20:33:16.696Z,17.47
2023-05-20T20:35:44.584Z,17.44
2023-05-20T20:38:14.930Z,17.45
2023-05-20T20:40:42.932Z,17.43
2023-05-20T20:43:20.506Z,17.38
2023-05-20T20:45:53.029Z,17.42
2023-05-20T20:48:26.571Z,17.38
2023-05-20T20:50:54.526Z,17.35
2023-05-20T20:53:22.343Z,17.31
2023-05-20T20:55:51.227Z,17.30
2023-05-20T20:58:19.349Z,17.31
2023-05-20T21:00:48.560Z,17.16
2023-05-20T21:03:18.465Z,17.24
2023-05-20T21:05:46.202Z,17.30
2023-05-20T21:08:14.072Z,17.27
2023-05-20T21:10:41.884Z,17.28
2023-05-20T21:13:09.648Z,17.29
2023-05-20T21:15:37.669Z,17.28
2023-05-20T21:18:05.588Z,17.26
2023-05-20T21:20:34.712Z,17.27
2023-05-20T21:23:02.449Z,17.19
2023-05-20T21:25:30.284Z,17.20
2023-05-20T21:27:58.174Z,17.20
2023-05-20T21:30:26.022Z,17.21
2023-05-20T21:32:53.884Z,17.15
2023-05-20T21:35:21.728Z,17.19
2023-05-20T21:37:51.780Z,17.20
2023-05-20T21:40:19.610Z,17.15
2023-05-20T21:42:48.816Z,17.18
2023-05-20T21:45:17.521Z,17.13
2023-05-20T21:47:46.243Z,17.17
2023-05-20T21:50:14.076Z,17.14
2023-05-20T21:52:41.983Z,17.12
2023-05-20T21:55:11.452Z,17.05
2023-05-20T21:57:39.388Z,17.07
2023-05-20T22:00:11.391Z,17.06
2023-05-20T22:02:39.308Z,17.08
2023-05-20T22:05:07.471Z,17.08
2023-05-20T22:07:35.267Z,17.08
2023-05-20T22:10:03.682Z,17.05
2023-05-20T22:12:35.801Z,17.04
2023-05-20T22:15:03.728Z,17.05
2023-05-20T22:17:34.097Z,17.06
2023-05-20T22:20:04.584Z,16.96
2023-05-20T22:22:32.405Z,17.02
2023-05-20T22:25:00.145Z,17.03
2023-05-20T22:27:28.181Z,17.01
2023-05-20T22:29:57.404Z,16.83
2023-05-20T22:32:25.289Z,16.97
2023-05-20T22:34:53.492Z,16.98
2023-05-20T22:37:21.894Z,16.96
2023-05-20T22:39:49.680Z,16.97
2023-05-20T22:42:17.693Z,16.96
2023-05-20T22:44:45.479Z,16.88
2023-05-20T22:47:16.534Z,16.83
2023-05-20T22:49:44.664Z,16.83
2023-05-20T22:52:12.831Z,16.80
2023-05-20T22:54:40.563Z,16.78
2023-05-20T22:57:12.089Z,16.75
2023-05-20T22:59:40.406Z,16.74
2023-05-20T23:02:08.689Z,16.73
2023-05-20T23:04:37.974Z,16.71
2023-05-20T23:07:06.448Z,16.69
2023-05-20T23:09:37.393Z,16.67
2023-05-20T23:12:05.894Z,16.64
2023-05-20T23:14:35.639Z,16.65
2023-05-20T23:17:03.515Z,16.62
2023-05-20T23:19:31.439Z,16.62
2023-05-20T23:22:01.388Z,16.60
2023-05-20T23:24:29.125Z,16.56
2023-05-20T23:26:56.976Z,16.56
2023-05-20T23:29:24.821Z,16.55
2023-05-20T23:31:52.627Z,16.51
2023-05-20T23:34:20.406Z,16.49
2023-05-20T23:36:48.220Z,16.48
2023-05-20T23:39:18.475Z,16.36
2023-05-20T23:41:46.607Z,16.46
2023-05-20T23:44:14.481Z,16.44
2023-05-20T23:46:42.886Z,16.43
2023-05-20T23:49:12.226Z,16.42
2023-05-20T23:51:40.104Z,16.41
2023-05-20T23:54:08.024Z,16.40
2023-05-20T23:56:37.202Z,16.36
2023-05-20T23:59:04.935Z,16.37
